sensor_id;sensor_type;location;lat;lon;timestamp;pressure;altitude;pressure_sealevel;temperature;humidity
17873;BME280;36318;42.620;23.338;2023-03-01T00:00:06;93340.66;;;4.99;100.00
17873;BME280;36318;42.620;23.338;2023-03-01T00:02:33;93339.66;;;5.01;100.00
17873;BME280;36318;42.620;23.338;2023-03-01T00:05:00;93334.50;;;5.01;100.00
17873;BME280;36318;42.620;23.338;2023-03-01T00:07:26;93333.69;;;5.01;100.00
17873;BME280;36318;42.620;23.338;2023-03-01T00:09:54;93320.16;;;4.81;100.00
17873;BME280;36318;42.620;23.338;2023-03-01T00:12:20;93321.16;;;4.79;100.00
17873;BME280;36318;42.620;23.338;2023-03-01T00:14:47;93331.72;;;4.74;100.00
17873;BME280;36318;42.620;23.338;2023-03-01T00:17:14;93321.84;;;4.82;100.00
17873;BME280;36318;42.620;23.338;2023-03-01T00:19:40;93315.03;;;4.81;100.00
17873;BME280;36318;42.620;23.338;2023-03-01T00:22:07;93304.69;;;4.67;100.00
17873;BME280;36318;42.620;23.338;2023-03-01T00:24:33;93304.34;;;4.73;100.00
17873;BME280;36318;42.620;23.338;2023-03-01T00:27:01;93290.47;;;4.76;100.00
17873;BME280;36318;42.620;23.338;2023-03-01T00:29:28;93293.66;;;4.65;100.00
17873;BME280;36318;42.620;23.338;2023-03-01T00:31:54;93286.50;;;4.70;100.00
17873;BME280;36318;42.620;23.338;2023-03-01T00:34:21;93288.50;;;4.81;100.00
17873;BME280;36318;42.620;23.338;2023-03-01T00:36:47;93279.81;;;4.83;100.00
17873;BME280;36318;42.620;23.338;2023-03-01T00:39:14;93279.97;;;4.80;100.00
17873;BME280;36318;42.620;23.338;2023-03-01T00:41:41;93270.13;;;4.73;100.00
17873;BME280;36318;42.620;23.338;2023-03-01T00:44:09;93267.84;;;4.82;100.00
17873;BME280;36318;42.620;23.338;2023-03-01T00:46:36;93267.84;;;4.82;100.00
17873;BME280;36318;42.620;23.338;2023-03-01T00:49:03;93279.53;;;4.88;100.00
17873;BME280;36318;42.620;23.338;2023-03-01T00:51:29;93283.69;;;4.91;100.00
17873;BME280;36318;42.620;23.338;2023-03-01T00:53:57;93270.72;;;4.92;100.00
17873;BME280;36318;42.620;23.338;2023-03-01T00:56:24;93269.47;;;4.99;100.00
17873;BME280;36318;42.620;23.338;2023-03-01T00:58:51;93265.16;;;5.00;100.00
17873;BME280;36318;42.620;23.338;2023-03-01T01:01:20;93277.09;;;5.01;100.00
17873;BME280;36318;42.620;23.338;2023-03-01T01:03:47;93275.47;;;5.00;100.00
17873;BME280;36318;42.620;23.338;2023-03-01T01:06:14;93271.88;;;5.02;100.00
17873;BME280;36318;42.620;23.338;2023-03-01T01:08:41;93267.75;;;5.00;100.00
17873;BME280;36318;42.620;23.338;2023-03-01T01:11:08;93273.78;;;4.99;100.00
17873;BME280;36318;42.620;23.338;2023-03-01T01:13:35;93273.69;;;5.00;100.00
17873;BME280;36318;42.620;23.338;2023-03-01T01:16:02;93275.06;;;4.92;100.00
17873;BME280;36318;42.620;23.338;2023-03-01T01:18:30;93277.56;;;4.77;100.00
17873;BME280;36318;42.620;23.338;2023-03-01T01:20:56;93279.81;;;4.83;100.00
17873;BME280;36318;42.620;23.338;2023-03-01T01:23:23;93278.69;;;4.88;100.00
17873;BME280;36318;42.620;23.338;2023-03-01T01:25:50;93284.28;;;4.80;100.00
17873;BME280;36318;42.620;23.338;2023-03-01T01:28:16;93283.94;;;4.86;100.00
17873;BME280;36318;42.620;23.338;2023-03-01T01:30:43;93287.44;;;4.69;100.00
17873;BME280;36318;42.620;23.338;2023-03-01T01:33:10;93280.72;;;4.67;100.00
17873;BME280;36318;42.620;23.338;2023-03-01T01:35:38;93283.03;;;4.71;100.00
17873;BME280;36318;42.620;23.338;2023-03-01T01:38:04;93287.44;;;4.69;100.00
17873;BME280;36318;42.620;23.338;2023-03-01T01:40:31;93289.06;;;4.70;100.00
17873;BME280;36318;42.620;23.338;2023-03-01T01:42:57;93290.75;;;4.71;100.00
17873;BME280;36318;42.620;23.338;2023-03-01T01:45:26;93292.75;;;4.66;100.00
17873;BME280;36318;42.620;23.338;2023-03-01T01:47:54;93296.31;;;4.64;100.00
17873;BME280;36318;42.620;23.338;2023-03-01T01:50:21;93294.22;;;4.70;100.00
17873;BME280;36318;42.620;23.338;2023-03-01T01:52:50;93295.22;;;4.68;100.00
17873;BME280;36318;42.620;23.338;2023-03-01T01:55:18;93286.03;;;4.64;100.00
17873;BME280;36318;42.620;23.338;2023-03-01T01:57:47;93291.75;;;4.69;100.00
17873;BME280;36318;42.620;23.338;2023-03-01T02:00:16;93290.50;;;4.60;100.00
17873;BME280;36318;42.620;23.338;2023-03-01T02:02:44;93292.44;;;4.57;100.00
17873;BME280;36318;42.620;23.338;2023-03-01T02:05:12;93287.09;;;4.60;100.00
17873;BME280;36318;42.620;23.338;2023-03-01T02:07:41;93281.63;;;4.66;100.00
17873;BME280;36318;42.620;23.338;2023-03-01T02:10:10;93199.44;;;4.19;100.00
17873;BME280;36318;42.620;23.338;2023-03-01T02:12:37;93281.19;;;4.73;100.00
17873;BME280;36318;42.620;23.338;2023-03-01T02:15:04;93283.03;;;4.71;100.00
17873;BME280;36318;42.620;23.338;2023-03-01T02:17:31;93275.66;;;4.65;100.00
17873;BME280;36318;42.620;23.338;2023-03-01T02:20:02;93281.72;;;4.64;100.00
17873;BME280;36318;42.620;23.338;2023-03-01T02:22:32;93198.28;;;4.09;100.00
17873;BME280;36318;42.620;23.338;2023-03-01T02:25:04;93281.97;;;4.60;100.00
17873;BME280;36318;42.620;23.338;2023-03-01T02:27:38;93286.78;;;4.66;100.00
17873;BME280;36318;42.620;23.338;2023-03-01T02:30:08;93283.03;;;4.71;100.00
17873;BME280;36318;42.620;23.338;2023-03-01T02:32:38;93197.94;;;4.15;100.00
17873;BME280;36318;42.620;23.338;2023-03-01T02:35:03;93287.59;;;4.66;100.00
17873;BME280;36318;42.620;23.338;2023-03-01T02:37:31;93294.56;;;4.64;100.00
17873;BME280;36318;42.620;23.338;2023-03-01T02:39:59;93293.81;;;4.62;100.00
17873;BME280;36318;42.620;23.338;2023-03-01T02:42:28;93294.31;;;4.69;100.00
17873;BME280;36318;42.620;23.338;2023-03-01T02:44:56;93291.91;;;4.66;100.00
17873;BME280;36318;42.620;23.338;2023-03-01T02:47:24;93291.34;;;4.61;100.00
17873;BME280;36318;42.620;23.338;2023-03-01T02:49:51;93286.88;;;4.64;100.00
17873;BME280;36318;42.620;23.338;2023-03-01T02:52:27;93292.34;;;4.58;100.00
17873;BME280;36318;42.620;23.338;2023-03-01T02:54:56;93283.72;;;4.59;100.00
17873;BME280;36318;42.620;23.338;2023-03-01T02:57:24;93287.50;;;4.68;100.00
17873;BME280;36318;42.620;23.338;2023-03-01T02:59:52;93284.94;;;4.68;100.00
17873;BME280;36318;42.620;23.338;2023-03-01T03:02:21;93290.06;;;4.68;100.00
17873;BME280;36318;42.620;23.338;2023-03-01T03:05:03;93287.09;;;4.60;100.00
17873;BME280;36318;42.620;23.338;2023-03-01T03:07:31;93284.94;;;4.52;100.00
17873;BME280;36318;42.620;23.338;2023-03-01T03:09:58;93286.22;;;4.45;100.00
17873;BME280;36318;42.620;23.338;2023-03-01T03:12:24;93283.97;;;4.39;100.00
17873;BME280;36318;42.620;23.338;2023-03-01T03:14:51;93287.09;;;4.44;100.00
17873;BME280;36318;42.620;23.338;2023-03-01T03:17:18;93282.72;;;4.46;100.00
17873;BME280;36318;42.620;23.338;2023-03-01T03:19:44;93282.13;;;4.41;100.00
17873;BME280;36318;42.620;23.338;2023-03-01T03:22:12;93284.69;;;4.41;100.00
17873;BME280;36318;42.620;23.338;2023-03-01T03:24:39;93285.38;;;4.45;100.00
17873;BME280;36318;42.620;23.338;2023-03-01T03:27:06;93277.50;;;4.48;100.00
17873;BME280;36318;42.620;23.338;2023-03-01T03:29:33;93276.50;;;4.50;100.00
17873;BME280;36318;42.620;23.338;2023-03-01T03:31:59;93284.72;;;4.57;100.00
17873;BME280;36318;42.620;23.338;2023-03-01T03:34:26;93286.28;;;4.59;100.00
17873;BME280;36318;42.620;23.338;2023-03-01T03:36:53;93291.66;;;4.70;100.00
17873;BME280;36318;42.620;23.338;2023-03-01T03:39:23;93285.44;;;4.74;100.00
17873;BME280;36318;42.620;23.338;2023-03-01T03:41:49;93287.88;;;4.62;100.00
17873;BME280;36318;42.620;23.338;2023-03-01T03:50:06;93284.53;;;4.60;100.00
17873;BME280;36318;42.620;23.338;2023-03-01T03:52:32;93292.06;;;4.63;100.00
17873;BME280;36318;42.620;23.338;2023-03-01T03:55:00;93291.34;;;4.61;100.00
17873;BME280;36318;42.620;23.338;2023-03-01T03:57:27;93287.03;;;4.61;100.00
17873;BME280;36318;42.620;23.338;2023-03-01T03:59:53;93287.28;;;4.57;100.00
17873;BME280;36318;42.620;23.338;2023-03-01T04:02:20;93280.66;;;4.53;100.00
17873;BME280;36318;42.620;23.338;2023-03-01T04:04:48;93289.66;;;4.60;100.00
17873;BME280;36318;42.620;23.338;2023-03-01T04:07:15;93293.06;;;4.60;100.00
17873;BME280;36318;42.620;23.338;2023-03-01T04:09:42;93286.38;;;4.58;100.00
17873;BME280;36318;42.620;23.338;2023-03-01T04:12:11;93295.41;;;4.49;100.00
17873;BME280;36318;42.620;23.338;2023-03-01T04:14:37;93298.72;;;4.51;100.00
17873;BME280;36318;42.620;23.338;2023-03-01T04:17:04;93295.13;;;4.38;100.00
17873;BME280;36318;42.620;23.338;2023-03-01T04:19:30;93295.41;;;4.49;100.00
17873;BME280;36318;42.620;23.338;2023-03-01T04:22:01;93290.00;;;4.38;100.00
17873;BME280;36318;42.620;23.338;2023-03-01T04:24:32;93289.16;;;4.22;100.00
17873;BME280;36318;42.620;23.338;2023-03-01T04:26:59;93293.41;;;4.23;100.00
17873;BME280;36318;42.620;23.338;2023-03-01T04:29:27;93299.84;;;4.14;100.00
17873;BME280;36318;42.620;23.338;2023-03-01T04:31:53;93297.97;;;4.18;100.00
17873;BME280;36318;42.620;23.338;2023-03-01T04:34:20;93295.38;;;4.18;100.00
17873;BME280;36318;42.620;23.338;2023-03-01T04:36:47;93289.94;;;4.24;100.00
17873;BME280;36318;42.620;23.338;2023-03-01T04:39:13;93288.44;;;4.20;100.00
17873;BME280;36318;42.620;23.338;2023-03-01T04:41:40;93293.16;;;4.28;100.00
17873;BME280;36318;42.620;23.338;2023-03-01T04:44:08;93295.97;;;4.23;100.00
17873;BME280;36318;42.620;23.338;2023-03-01T04:46:36;93299.69;;;4.33;100.00
17873;BME280;36318;42.620;23.338;2023-03-01T04:49:03;93296.56;;;4.28;100.00
17873;BME280;36318;42.620;23.338;2023-03-01T04:51:30;93281.81;;;4.16;100.00
17873;BME280;36318;42.620;23.338;2023-03-01T04:53:57;93288.59;;;4.17;100.00
17873;BME280;36318;42.620;23.338;2023-03-01T04:56:30;93292.41;;;4.10;100.00
17873;BME280;36318;42.620;23.338;2023-03-01T04:58:57;93292.25;;;4.13;100.00
17873;BME280;36318;42.620;23.338;2023-03-01T05:01:23;93279.31;;;4.14;100.00
17873;BME280;36318;42.620;23.338;2023-03-01T05:03:51;93281.38;;;4.08;100.00
17873;BME280;36318;42.620;23.338;2023-03-01T05:06:18;93285.59;;;4.09;100.00
17873;BME280;36318;42.620;23.338;2023-03-01T05:08:45;93275.09;;;4.13;100.00
17873;BME280;36318;42.620;23.338;2023-03-01T05:11:12;93286.75;;;4.19;100.00
17873;BME280;36318;42.620;23.338;2023-03-01T05:13:39;93281.72;;;4.17;100.00
17873;BME280;36318;42.620;23.338;2023-03-01T05:16:06;93283.28;;;4.20;100.00
17873;BME280;36318;42.620;23.338;2023-03-01T05:18:36;93287.53;;;4.21;100.00
17873;BME280;36318;42.620;23.338;2023-03-01T05:21:05;93288.69;;;4.31;100.00
17873;BME280;36318;42.620;23.338;2023-03-01T05:23:33;93289.09;;;4.39;100.00
17873;BME280;36318;42.620;23.338;2023-03-01T05:26:00;93276.66;;;4.47;100.00
17873;BME280;36318;42.620;23.338;2023-03-01T05:28:27;93284.78;;;4.55;100.00
17873;BME280;36318;42.620;23.338;2023-03-01T05:30:54;93284.63;;;4.58;100.00
17873;BME280;36318;42.620;23.338;2023-03-01T05:33:21;93286.78;;;4.66;100.00
17873;BME280;36318;42.620;23.338;2023-03-01T05:35:48;93290.91;;;4.68;100.00
17873;BME280;36318;42.620;23.338;2023-03-01T05:38:16;93299.19;;;4.73;100.00
17873;BME280;36318;42.620;23.338;2023-03-01T05:40:44;93300.53;;;4.80;100.00
17873;BME280;36318;42.620;23.338;2023-03-01T05:43:11;93303.34;;;4.92;100.00
17873;BME280;36318;42.620;23.338;2023-03-01T05:45:38;93311.53;;;4.98;100.00
17873;BME280;36318;42.620;23.338;2023-03-01T05:48:08;93300.63;;;5.09;100.00
17873;BME280;36318;42.620;23.338;2023-03-01T05:50:35;93319.22;;;5.14;100.00
17873;BME280;36318;42.620;23.338;2023-03-01T05:53:03;93319.81;;;5.19;100.00
17873;BME280;36318;42.620;23.338;2023-03-01T05:55:32;93335.66;;;5.27;100.00
17873;BME280;36318;42.620;23.338;2023-03-01T05:57:59;93329.00;;;5.23;100.00
17873;BME280;36318;42.620;23.338;2023-03-01T06:00:26;93332.91;;;5.14;100.00
17873;BME280;36318;42.620;23.338;2023-03-01T06:02:54;93332.91;;;5.14;100.00
17873;BME280;36318;42.620;23.338;2023-03-01T06:05:21;93338.06;;;5.14;100.00
17873;BME280;36318;42.620;23.338;2023-03-01T06:07:48;93337.63;;;5.22;100.00
17873;BME280;36318;42.620;23.338;2023-03-01T06:10:15;93337.81;;;5.19;100.00
17873;BME280;36318;42.620;23.338;2023-03-01T06:12:43;93354.56;;;5.26;100.00
17873;BME280;36318;42.620;23.338;2023-03-01T06:15:11;93356.22;;;5.27;100.00
17873;BME280;36318;42.620;23.338;2023-03-01T06:17:38;93346.44;;;5.18;100.00
17873;BME280;36318;42.620;23.338;2023-03-01T06:20:06;93353.16;;;5.20;100.00
17873;BME280;36318;42.620;23.338;2023-03-01T06:22:33;93354.38;;;5.29;100.00
17873;BME280;36318;42.620;23.338;2023-03-01T06:25:00;93354.56;;;5.26;100.00
17873;BME280;36318;42.620;23.338;2023-03-01T06:27:26;93359.88;;;5.23;100.00
17873;BME280;36318;42.620;23.338;2023-03-01T06:29:54;93354.22;;;5.32;100.00
17873;BME280;36318;42.620;23.338;2023-03-01T06:32:21;93349.25;;;5.29;100.00
17873;BME280;36318;42.620;23.338;2023-03-01T06:34:47;93341.78;;;5.24;100.00
17873;BME280;36318;42.620;23.338;2023-03-01T06:37:14;93360.44;;;5.28;100.00
17873;BME280;36318;42.620;23.338;2023-03-01T06:39:40;93362.84;;;5.31;100.00
17873;BME280;36318;42.620;23.338;2023-03-01T06:42:07;93370.41;;;5.34;100.00
17873;BME280;36318;42.620;23.338;2023-03-01T06:44:35;93358.81;;;5.41;100.00
17873;BME280;36318;42.620;23.338;2023-03-01T06:47:03;93364.16;;;5.38;100.00
17873;BME280;36318;42.620;23.338;2023-03-01T06:49:29;93365.59;;;5.58;100.00
17873;BME280;36318;42.620;23.338;2023-03-01T06:51:56;93364.38;;;5.49;100.00
17873;BME280;36318;42.620;23.338;2023-03-01T06:54:23;93302.81;;;5.16;100.00
17873;BME280;36318;42.620;23.338;2023-03-01T06:56:49;93355.88;;;5.63;100.00
17873;BME280;36318;42.620;23.338;2023-03-01T06:59:16;93363.34;;;5.81;100.00
17873;BME280;36318;42.620;23.338;2023-03-01T07:01:43;93363.13;;;5.56;100.00
17873;BME280;36318;42.620;23.338;2023-03-01T07:04:12;93358.19;;;5.67;100.00
17873;BME280;36318;42.620;23.338;2023-03-01T07:06:38;93361.16;;;5.75;100.00
17873;BME280;36318;42.620;23.338;2023-03-01T07:09:05;93348.13;;;5.63;100.00
17873;BME280;36318;42.620;23.338;2023-03-01T07:11:31;93364.69;;;5.59;100.00
17873;BME280;36318;42.620;23.338;2023-03-01T07:13:58;93352.41;;;5.78;100.00
17873;BME280;36318;42.620;23.338;2023-03-01T07:16:25;93354.41;;;5.88;100.00
17873;BME280;36318;42.620;23.338;2023-03-01T07:18:51;93353.28;;;5.92;100.00
17873;BME280;36318;42.620;23.338;2023-03-01T07:21:20;93357.44;;;5.95;100.00
17873;BME280;36318;42.620;23.338;2023-03-01T07:23:48;93357.19;;;5.99;100.00
17873;BME280;36318;42.620;23.338;2023-03-01T07:26:15;93353.81;;;5.83;100.00
17873;BME280;36318;42.620;23.338;2023-03-01T07:28:41;93365.38;;;5.76;100.00
17873;BME280;36318;42.620;23.338;2023-03-01T07:31:08;93359.72;;;5.85;100.00
17873;BME280;36318;42.620;23.338;2023-03-01T07:33:35;93354.63;;;5.70;100.00
17873;BME280;36318;42.620;23.338;2023-03-01T07:36:02;93347.06;;;5.67;100.00
17873;BME280;36318;42.620;23.338;2023-03-01T07:38:31;93350.31;;;5.55;100.00
17873;BME280;36318;42.620;23.338;2023-03-01T07:40:58;93347.75;;;5.55;100.00
17873;BME280;36318;42.620;23.338;2023-03-01T07:43:25;93351.19;;;5.69;100.00
17873;BME280;36318;42.620;23.338;2023-03-01T07:45:51;93352.78;;;5.42;100.00
17873;BME280;36318;42.620;23.338;2023-03-01T07:48:18;93346.78;;;5.71;100.00
17873;BME280;36318;42.620;23.338;2023-03-01T07:50:45;93339.22;;;5.68;100.00
17873;BME280;36318;42.620;23.338;2023-03-01T07:53:11;93342.75;;;5.67;100.00
17873;BME280;36318;42.620;23.338;2023-03-01T07:55:39;93328.13;;;5.82;100.00
17873;BME280;36318;42.620;23.338;2023-03-01T07:58:06;93333.81;;;5.88;100.00
17873;BME280;36318;42.620;23.338;2023-03-01T08:00:32;93330.72;;;5.82;100.00
17873;BME280;36318;42.620;23.338;2023-03-01T08:02:59;93331.47;;;5.84;100.00
17873;BME280;36318;42.620;23.338;2023-03-01T08:05:26;93333.44;;;5.94;100.00
17873;BME280;36318;42.620;23.338;2023-03-01T08:07:53;93329.41;;;6.05;100.00
17873;BME280;36318;42.620;23.338;2023-03-01T08:10:19;93331.94;;;5.90;100.00
17873;BME280;36318;42.620;23.338;2023-03-01T08:12:47;93337.19;;;6.03;100.00
17873;BME280;36318;42.620;23.338;2023-03-01T08:15:14;93333.81;;;5.88;100.00
17873;BME280;36318;42.620;23.338;2023-03-01T08:17:41;93338.28;;;5.85;100.00
17873;BME280;36318;42.620;23.338;2023-03-01T08:20:08;93342.56;;;5.70;100.00
17873;BME280;36318;42.620;23.338;2023-03-01T08:22:37;93330.13;;;5.63;100.00
17873;BME280;36318;42.620;23.338;2023-03-01T08:25:04;93339.22;;;5.68;100.00
17873;BME280;36318;42.620;23.338;2023-03-01T08:27:31;93341.69;;;5.85;100.00
17873;BME280;36318;42.620;23.338;2023-03-01T08:29:59;93335.22;;;5.78;100.00
17873;BME280;36318;42.620;23.338;2023-03-01T08:32:25;93337.97;;;5.75;100.00
17873;BME280;36318;42.620;23.338;2023-03-01T08:34:52;93331.63;;;5.67;100.00
17873;BME280;36318;42.620;23.338;2023-03-01T08:37:19;93327.19;;;5.98;100.00
17873;BME280;36318;42.620;23.338;2023-03-01T08:39:46;93332.88;;;6.03;100.00
17873;BME280;36318;42.620;23.338;2023-03-01T08:42:12;93324.22;;;6.33;100.00
17873;BME280;36318;42.620;23.338;2023-03-01T08:44:39;93336.28;;;6.04;100.00
17873;BME280;36318;42.620;23.338;2023-03-01T08:47:07;93251.00;;;5.94;100.00
17873;BME280;36318;42.620;23.338;2023-03-01T08:49:34;93323.56;;;6.43;100.00
17873;BME280;36318;42.620;23.338;2023-03-01T08:52:01;93335.13;;;6.38;100.00
17873;BME280;36318;42.620;23.338;2023-03-01T08:54:28;93331.78;;;6.36;100.00
17873;BME280;36318;42.620;23.338;2023-03-01T08:56:55;93337.59;;;6.25;100.00
17873;BME280;36318;42.620;23.338;2023-03-01T08:59:25;93335.47;;;6.46;100.00
17873;BME280;36318;42.620;23.338;2023-03-01T09:01:51;93334.53;;;6.33;100.00
17873;BME280;36318;42.620;23.338;2023-03-01T09:04:19;93330.22;;;6.47;100.00
17873;BME280;36318;42.620;23.338;2023-03-01T09:06:46;93336.56;;;6.70;100.00
17873;BME280;36318;42.620;23.338;2023-03-01T09:09:14;93334.53;;;6.61;100.00
17873;BME280;36318;42.620;23.338;2023-03-01T09:11:41;93337.88;;;6.35;100.00
17873;BME280;36318;42.620;23.338;2023-03-01T09:14:08;93270.78;;;6.08;100.00
17873;BME280;36318;42.620;23.338;2023-03-01T09:16:34;93342.81;;;6.66;100.00
17873;BME280;36318;42.620;23.338;2023-03-01T09:19:01;93339.31;;;6.53;100.00
17873;BME280;36318;42.620;23.338;2023-03-01T09:21:30;93336.56;;;6.28;100.00
17873;BME280;36318;42.620;23.338;2023-03-01T09:23:57;93335.56;;;6.30;100.00
17873;BME280;36318;42.620;23.338;2023-03-01T09:26:24;93341.16;;;6.23;100.00
17873;BME280;36318;42.620;23.338;2023-03-01T09:28:53;93322.22;;;6.38;100.00
17873;BME280;36318;42.620;23.338;2023-03-01T09:31:20;93333.91;;;6.15;100.00
17873;BME280;36318;42.620;23.338;2023-03-01T09:33:47;93328.84;;;6.14;100.00
17873;BME280;36318;42.620;23.338;2023-03-01T09:36:15;93324.16;;;6.20;100.00
17873;BME280;36318;42.620;23.338;2023-03-01T09:38:43;93328.66;;;6.59;100.00
17873;BME280;36318;42.620;23.338;2023-03-01T09:41:10;93323.00;;;6.81;100.00
17873;BME280;36318;42.620;23.338;2023-03-01T09:43:40;93321.16;;;6.69;100.00
17873;BME280;36318;42.620;23.338;2023-03-01T09:46:09;93319.97;;;6.60;100.00
17873;BME280;36318;42.620;23.338;2023-03-01T09:48:37;93323.09;;;6.65;100.00
17873;BME280;36318;42.620;23.338;2023-03-01T09:51:09;93321.47;;;6.91;100.00
17873;BME280;36318;42.620;23.338;2023-03-01T09:53:38;93320.25;;;6.96;100.00
17873;BME280;36318;42.620;23.338;2023-03-01T09:56:13;93319.06;;;6.61;100.00
17873;BME280;36318;42.620;23.338;2023-03-01T09:58:47;93318.38;;;6.86;100.00
17873;BME280;36318;42.620;23.338;2023-03-01T10:01:23;93306.78;;;7.05;100.00
17873;BME280;36318;42.620;23.338;2023-03-01T10:03:57;93298.97;;;6.66;100.00
17873;BME280;36318;42.620;23.338;2023-03-01T10:06:26;93308.75;;;6.61;100.00
17873;BME280;36318;42.620;23.338;2023-03-01T10:08:53;93235.75;;;5.91;100.00
17873;BME280;36318;42.620;23.338;2023-03-01T10:11:23;93295.56;;;6.66;100.00
17873;BME280;36318;42.620;23.338;2023-03-01T10:13:52;93296.75;;;6.60;100.00
17873;BME280;36318;42.620;23.338;2023-03-01T10:16:21;93294.88;;;6.76;100.00
17873;BME280;36318;42.620;23.338;2023-03-01T10:18:51;93296.66;;;6.76;100.00
17873;BME280;36318;42.620;23.338;2023-03-01T10:21:20;93301.19;;;6.58;100.00
17873;BME280;36318;42.620;23.338;2023-03-01T10:23:46;93283.06;;;6.59;100.00
17873;BME280;36318;42.620;23.338;2023-03-01T10:26:25;93287.97;;;6.77;100.00
17873;BME280;36318;42.620;23.338;2023-03-01T10:28:58;93280.72;;;6.69;100.00
17873;BME280;36318;42.620;23.338;2023-03-01T10:31:39;93292.38;;;6.48;100.00
17873;BME280;36318;42.620;23.338;2023-03-01T10:34:09;93277.16;;;6.43;100.00
17873;BME280;36318;42.620;23.338;2023-03-01T10:36:37;93272.25;;;6.67;100.00
17873;BME280;36318;42.620;23.338;2023-03-01T10:39:11;93278.88;;;6.71;100.00
17873;BME280;36318;42.620;23.338;2023-03-01T10:41:44;93274.53;;;6.98;100.00
17873;BME280;36318;42.620;23.338;2023-03-01T10:44:34;93268.13;;;6.91;100.00
17873;BME280;36318;42.620;23.338;2023-03-01T10:47:01;93267.19;;;6.92;100.00
17873;BME280;36318;42.620;23.338;2023-03-01T10:49:28;93262.97;;;6.91;100.00
17873;BME280;36318;42.620;23.338;2023-03-01T10:51:54;93263.50;;;6.96;100.00
17873;BME280;36318;42.620;23.338;2023-03-01T10:54:22;93265.00;;;7.13;100.00
17873;BME280;36318;42.620;23.338;2023-03-01T10:56:52;93273.94;;;7.34;100.00
17873;BME280;36318;42.620;23.338;2023-03-01T10:59:22;93278.84;;;7.24;100.00
17873;BME280;36318;42.620;23.338;2023-03-01T11:02:00;93265.59;;;7.04;100.00
17873;BME280;36318;42.620;23.338;2023-03-01T11:04:27;93273.28;;;6.91;100.00
17873;BME280;36318;42.620;23.338;2023-03-01T11:06:58;93279.91;;;6.95;100.00
17873;BME280;36318;42.620;23.338;2023-03-01T11:09:24;93271.97;;;6.98;100.00
17873;BME280;36318;42.620;23.338;2023-03-01T11:11:54;93279.19;;;6.93;100.00
17873;BME280;36318;42.620;23.338;2023-03-01T11:14:21;93284.56;;;7.03;100.00
17873;BME280;36318;42.620;23.338;2023-03-01T11:16:49;93273.19;;;6.93;100.00
17873;BME280;36318;42.620;23.338;2023-03-01T11:19:24;93282.16;;;6.73;100.00
17873;BME280;36318;42.620;23.338;2023-03-01T11:21:52;93272.59;;;6.75;100.00
17873;BME280;36318;42.620;23.338;2023-03-01T11:24:22;93276.78;;;6.63;100.00
17873;BME280;36318;42.620;23.338;2023-03-01T11:26:50;93281.97;;;6.35;100.00
17873;BME280;36318;42.620;23.338;2023-03-01T11:29:21;93276.75;;;6.23;100.00
17873;BME280;36318;42.620;23.338;2023-03-01T11:31:52;93276.63;;;6.52;100.00
17873;BME280;36318;42.620;23.338;2023-03-01T11:34:23;93280.84;;;6.53;100.00
17873;BME280;36318;42.620;23.338;2023-03-01T11:36:51;93272.59;;;6.48;100.00
17873;BME280;36318;42.620;23.338;2023-03-01T11:39:22;93265.56;;;6.65;100.00
17873;BME280;36318;42.620;23.338;2023-03-01T11:41:52;93267.78;;;6.83;100.00
17873;BME280;36318;42.620;23.338;2023-03-01T11:44:26;93259.22;;;6.83;100.00
17873;BME280;36318;42.620;23.338;2023-03-01T11:47:03;93261.22;;;6.92;100.00
17873;BME280;36318;42.620;23.338;2023-03-01T11:49:41;93257.28;;;6.86;100.00
17873;BME280;36318;42.620;23.338;2023-03-01T11:52:16;93247.59;;;6.49;100.00
17873;BME280;36318;42.620;23.338;2023-03-01T11:54:49;93245.88;;;6.35;100.00
17873;BME280;36318;42.620;23.338;2023-03-01T11:57:20;93237.09;;;6.52;100.00
17873;BME280;36318;42.620;23.338;2023-03-01T12:02:43;93241.81;;;6.59;100.00
17873;BME280;36318;42.620;23.338;2023-03-01T12:05:16;93235.16;;;6.82;100.00
17873;BME280;36318;42.620;23.338;2023-03-01T12:07:49;93238.38;;;7.12;100.00
17873;BME280;36318;42.620;23.338;2023-03-01T12:10:21;93239.13;;;7.00;100.00
17873;BME280;36318;42.620;23.338;2023-03-01T12:12:52;93242.84;;;6.84;100.00
17873;BME280;36318;42.620;23.338;2023-03-01T12:18:18;93226.75;;;7.45;100.00
17873;BME280;36318;42.620;23.338;2023-03-01T12:20:54;93236.63;;;7.26;100.00
17873;BME280;36318;42.620;23.338;2023-03-01T12:26:13;93230.69;;;7.50;100.00
17873;BME280;36318;42.620;23.338;2023-03-01T12:28:47;93230.56;;;7.52;100.00
17873;BME280;36318;42.620;23.338;2023-03-01T12:31:30;93232.88;;;7.04;100.00
17873;BME280;36318;42.620;23.338;2023-03-01T12:34:01;93229.34;;;7.45;100.00
17873;BME280;36318;42.620;23.338;2023-03-01T12:36:34;93228.22;;;7.09;100.00
17873;BME280;36318;42.620;23.338;2023-03-01T12:39:09;93223.13;;;7.35;100.00
17873;BME280;36318;42.620;23.338;2023-03-01T12:41:46;93212.47;;;7.27;100.00
17873;BME280;36318;42.620;23.338;2023-03-01T12:44:23;93214.25;;;7.64;100.00
17873;BME280;36318;42.620;23.338;2023-03-01T12:47:00;93219.13;;;7.68;100.00
17873;BME280;36318;42.620;23.338;2023-03-01T12:49:32;93219.22;;;7.67;100.00
17873;BME280;36318;42.620;23.338;2023-03-01T12:52:01;93221.69;;;7.43;100.00
17873;BME280;36318;42.620;23.338;2023-03-01T12:54:31;93220.56;;;7.35;100.00
17873;BME280;36318;42.620;23.338;2023-03-01T12:56:59;93210.75;;;7.40;100.00
17873;BME280;36318;42.620;23.338;2023-03-01T12:59:31;93212.56;;;7.25;100.00
17873;BME280;36318;42.620;23.338;2023-03-01T13:02:04;93218.16;;;7.32;100.00
17873;BME280;36318;42.620;23.338;2023-03-01T13:04:40;93214.47;;;7.73;100.00
17873;BME280;36318;42.620;23.338;2023-03-01T13:07:14;93213.00;;;7.32;100.00
17873;BME280;36318;42.620;23.338;2023-03-01T13:09:45;93214.97;;;7.66;100.00